sensor_id;sensor_type;location;lat;lon;timestamp;P1;durP1;ratioP1;P2;durP2;ratioP2
67861;SDS011;54665;51.462;6.698;2023-02-22T00:00:10;56.40;;;15.65;;
67861;SDS011;54665;51.462;6.698;2023-02-22T00:02:55;62.58;;;17.38;;
67861;SDS011;54665;51.462;6.698;2023-02-22T00:05:24;56.00;;;16.13;;
67861;SDS011;54665;51.462;6.698;2023-02-22T00:07:52;58.33;;;16.17;;
67861;SDS011;54665;51.462;6.698;2023-02-22T00:10:21;60.95;;;16.63;;
67861;SDS011;54665;51.462;6.698;2023-02-22T00:12:48;56.90;;;15.88;;
67861;SDS011;54665;51.462;6.698;2023-02-22T00:15:19;57.38;;;16.13;;
67861;SDS011;54665;51.462;6.698;2023-02-22T00:17:46;57.53;;;16.30;;
67861;SDS011;54665;51.462;6.698;2023-02-22T00:20:13;61.37;;;16.17;;
67861;SDS011;54665;51.462;6.698;2023-02-22T00:22:42;64.97;;;16.92;;
67861;SDS011;54665;51.462;6.698;2023-02-22T00:25:11;71.45;;;17.88;;
67861;SDS011;54665;51.462;6.698;2023-02-22T00:27:42;70.05;;;17.92;;
67861;SDS011;54665;51.462;6.698;2023-02-22T00:30:13;73.73;;;17.87;;
67861;SDS011;54665;51.462;6.698;2023-02-22T00:32:47;68.90;;;17.85;;
67861;SDS011;54665;51.462;6.698;2023-02-22T00:35:14;71.90;;;18.52;;
67861;SDS011;54665;51.462;6.698;2023-02-22T00:37:42;75.43;;;17.67;;
67861;SDS011;54665;51.462;6.698;2023-02-22T00:40:11;72.13;;;17.73;;
67861;SDS011;54665;51.462;6.698;2023-02-22T00:42:39;75.47;;;17.42;;
67861;SDS011;54665;51.462;6.698;2023-02-22T00:45:04;78.63;;;17.67;;
67861;SDS011;54665;51.462;6.698;2023-02-22T00:47:33;88.22;;;17.85;;
67861;SDS011;54665;51.462;6.698;2023-02-22T00:49:59;74.23;;;17.13;;
67861;SDS011;54665;51.462;6.698;2023-02-22T00:52:25;83.93;;;17.95;;
67861;SDS011;54665;51.462;6.698;2023-02-22T00:54:52;80.37;;;16.47;;
67861;SDS011;54665;51.462;6.698;2023-02-22T00:57:22;74.55;;;17.05;;
67861;SDS011;54665;51.462;6.698;2023-02-22T00:59:48;88.93;;;18.88;;
67861;SDS011;54665;51.462;6.698;2023-02-22T01:02:15;85.25;;;17.85;;
67861;SDS011;54665;51.462;6.698;2023-02-22T01:04:42;87.15;;;17.67;;
67861;SDS011;54665;51.462;6.698;2023-02-22T01:07:10;84.07;;;18.00;;
67861;SDS011;54665;51.462;6.698;2023-02-22T01:09:35;82.88;;;17.33;;
67861;SDS011;54665;51.462;6.698;2023-02-22T01:12:01;89.47;;;17.90;;
67861;SDS011;54665;51.462;6.698;2023-02-22T01:14:27;85.07;;;17.27;;
67861;SDS011;54665;51.462;6.698;2023-02-22T01:16:56;91.03;;;17.30;;
67861;SDS011;54665;51.462;6.698;2023-02-22T01:19:22;99.30;;;17.77;;
67861;SDS011;54665;51.462;6.698;2023-02-22T01:21:48;103.90;;;18.17;;
67861;SDS011;54665;51.462;6.698;2023-02-22T01:24:15;85.32;;;17.88;;
67861;SDS011;54665;51.462;6.698;2023-02-22T01:26:48;93.43;;;17.77;;
67861;SDS011;54665;51.462;6.698;2023-02-22T01:29:15;117.13;;;18.85;;
67861;SDS011;54665;51.462;6.698;2023-02-22T01:31:42;119.28;;;20.20;;
67861;SDS011;54665;51.462;6.698;2023-02-22T01:34:15;112.15;;;18.45;;
67861;SDS011;54665;51.462;6.698;2023-02-22T01:36:41;131.10;;;19.45;;
67861;SDS011;54665;51.462;6.698;2023-02-22T01:39:07;122.93;;;20.07;;
67861;SDS011;54665;51.462;6.698;2023-02-22T01:41:34;114.78;;;19.08;;
67861;SDS011;54665;51.462;6.698;2023-02-22T01:44:16;123.90;;;18.88;;
67861;SDS011;54665;51.462;6.698;2023-02-22T01:46:43;109.70;;;18.48;;
67861;SDS011;54665;51.462;6.698;2023-02-22T01:49:09;122.37;;;18.87;;
67861;SDS011;54665;51.462;6.698;2023-02-22T01:51:36;114.60;;;18.20;;
67861;SDS011;54665;51.462;6.698;2023-02-22T01:54:12;114.00;;;18.90;;
67861;SDS011;54665;51.462;6.698;2023-02-22T01:56:45;116.83;;;20.70;;
67861;SDS011;54665;51.462;6.698;2023-02-22T01:59:17;124.07;;;20.92;;
67861;SDS011;54665;51.462;6.698;2023-02-22T02:01:45;112.65;;;19.88;;
67861;SDS011;54665;51.462;6.698;2023-02-22T02:04:12;107.03;;;19.33;;
67861;SDS011;54665;51.462;6.698;2023-02-22T02:06:41;108.10;;;17.42;;
67861;SDS011;54665;51.462;6.698;2023-02-22T02:09:13;107.20;;;19.23;;
67861;SDS011;54665;51.462;6.698;2023-02-22T02:11:44;103.57;;;17.85;;
67861;SDS011;54665;51.462;6.698;2023-02-22T02:14:10;95.13;;;17.92;;
67861;SDS011;54665;51.462;6.698;2023-02-22T02:16:41;114.37;;;18.37;;
67861;SDS011;54665;51.462;6.698;2023-02-22T02:19:17;102.80;;;18.23;;
67861;SDS011;54665;51.462;6.698;2023-02-22T02:21:58;116.30;;;18.70;;
67861;SDS011;54665;51.462;6.698;2023-02-22T02:27:22;116.90;;;18.63;;
67861;SDS011;54665;51.462;6.698;2023-02-22T02:30:12;97.70;;;17.47;;
67861;SDS011;54665;51.462;6.698;2023-02-22T02:36:07;103.55;;;17.38;;
67861;SDS011;54665;51.462;6.698;2023-02-22T02:38:43;88.32;;;16.35;;
67861;SDS011;54665;51.462;6.698;2023-02-22T02:43:53;97.10;;;17.53;;
67861;SDS011;54665;51.462;6.698;2023-02-22T02:46:50;94.03;;;17.58;;
67861;SDS011;54665;51.462;6.698;2023-02-22T02:49:24;99.93;;;17.60;;
67861;SDS011;54665;51.462;6.698;2023-02-22T02:51:54;102.85;;;17.77;;
67861;SDS011;54665;51.462;6.698;2023-02-22T02:54:22;108.78;;;18.90;;
67861;SDS011;54665;51.462;6.698;2023-02-22T02:56:50;106.37;;;18.10;;
67861;SDS011;54665;51.462;6.698;2023-02-22T03:15:33;206.13;;;21.17;;
67861;SDS011;54665;51.462;6.698;2023-02-22T03:18:03;244.80;;;22.70;;
67861;SDS011;54665;51.462;6.698;2023-02-22T03:23:21;460.35;;;27.90;;
67861;SDS011;54665;51.462;6.698;2023-02-22T03:25:58;387.13;;;25.33;;
67861;SDS011;54665;51.462;6.698;2023-02-22T03:28:29;150.38;;;20.52;;
67861;SDS011;54665;51.462;6.698;2023-02-22T03:30:59;344.33;;;23.30;;
67861;SDS011;54665;51.462;6.698;2023-02-22T03:33:32;335.52;;;23.30;;
67861;SDS011;54665;51.462;6.698;2023-02-22T03:36:06;216.30;;;18.20;;
67861;SDS011;54665;51.462;6.698;2023-02-22T03:38:38;207.10;;;19.17;;
67861;SDS011;54665;51.462;6.698;2023-02-22T03:41:07;157.57;;;17.35;;
67861;SDS011;54665;51.462;6.698;2023-02-22T03:43:40;266.27;;;19.57;;
67861;SDS011;54665;51.462;6.698;2023-02-22T03:46:12;212.50;;;17.45;;
67861;SDS011;54665;51.462;6.698;2023-02-22T03:51:09;159.57;;;17.77;;
67861;SDS011;54665;51.462;6.698;2023-02-22T03:53:39;143.55;;;16.40;;
67861;SDS011;54665;51.462;6.698;2023-02-22T03:56:08;140.40;;;16.13;;
67861;SDS011;54665;51.462;6.698;2023-02-22T03:58:38;128.73;;;16.52;;
67861;SDS011;54665;51.462;6.698;2023-02-22T04:01:08;126.07;;;17.40;;
67861;SDS011;54665;51.462;6.698;2023-02-22T04:03:34;124.93;;;16.85;;
67861;SDS011;54665;51.462;6.698;2023-02-22T04:06:00;127.72;;;17.13;;
67861;SDS011;54665;51.462;6.698;2023-02-22T04:08:26;134.50;;;17.10;;
67861;SDS011;54665;51.462;6.698;2023-02-22T04:10:51;117.50;;;16.97;;
67861;SDS011;54665;51.462;6.698;2023-02-22T04:13:20;151.10;;;17.33;;
67861;SDS011;54665;51.462;6.698;2023-02-22T04:15:47;149.43;;;17.20;;
67861;SDS011;54665;51.462;6.698;2023-02-22T04:18:13;151.87;;;17.23;;
67861;SDS011;54665;51.462;6.698;2023-02-22T04:20:39;166.00;;;17.23;;
67861;SDS011;54665;51.462;6.698;2023-02-22T04:23:11;206.13;;;19.42;;
67861;SDS011;54665;51.462;6.698;2023-02-22T04:25:39;192.27;;;17.45;;
67861;SDS011;54665;51.462;6.698;2023-02-22T04:28:13;176.23;;;19.13;;
67861;SDS011;54665;51.462;6.698;2023-02-22T04:30:43;188.27;;;19.95;;
67861;SDS011;54665;51.462;6.698;2023-02-22T04:33:12;177.40;;;20.15;;
67861;SDS011;54665;51.462;6.698;2023-02-22T04:35:38;189.80;;;19.42;;
67861;SDS011;54665;51.462;6.698;2023-02-22T04:38:04;185.55;;;19.15;;
67861;SDS011;54665;51.462;6.698;2023-02-22T04:40:30;203.23;;;20.10;;
67861;SDS011;54665;51.462;6.698;2023-02-22T04:42:56;222.50;;;20.45;;
67861;SDS011;54665;51.462;6.698;2023-02-22T04:45:22;205.93;;;20.45;;
67861;SDS011;54665;51.462;6.698;2023-02-22T04:47:48;185.03;;;20.00;;
67861;SDS011;54665;51.462;6.698;2023-02-22T04:50:15;180.70;;;18.85;;
67861;SDS011;54665;51.462;6.698;2023-02-22T04:52:41;169.53;;;20.37;;
67861;SDS011;54665;51.462;6.698;2023-02-22T04:55:06;208.80;;;20.27;;
67861;SDS011;54665;51.462;6.698;2023-02-22T04:57:34;115.80;;;16.52;;
67861;SDS011;54665;51.462;6.698;2023-02-22T04:59:59;112.53;;;17.57;;
67861;SDS011;54665;51.462;6.698;2023-02-22T05:02:25;204.90;;;18.93;;
67861;SDS011;54665;51.462;6.698;2023-02-22T05:04:50;200.23;;;18.33;;
67861;SDS011;54665;51.462;6.698;2023-02-22T05:07:16;204.50;;;19.13;;
67861;SDS011;54665;51.462;6.698;2023-02-22T05:09:41;222.93;;;19.63;;
67861;SDS011;54665;51.462;6.698;2023-02-22T05:12:07;167.65;;;19.15;;
67861;SDS011;54665;51.462;6.698;2023-02-22T05:14:33;194.40;;;19.27;;
67861;SDS011;54665;51.462;6.698;2023-02-22T05:16:58;175.60;;;17.63;;
67861;SDS011;54665;51.462;6.698;2023-02-22T05:19:24;239.60;;;19.30;;
67861;SDS011;54665;51.462;6.698;2023-02-22T05:21:50;192.10;;;18.33;;
67861;SDS011;54665;51.462;6.698;2023-02-22T05:24:15;116.97;;;16.60;;
67861;SDS011;54665;51.462;6.698;2023-02-22T05:26:44;128.27;;;17.43;;
67861;SDS011;54665;51.462;6.698;2023-02-22T05:29:10;111.15;;;15.40;;
67861;SDS011;54665;51.462;6.698;2023-02-22T05:31:36;172.55;;;18.48;;
67861;SDS011;54665;51.462;6.698;2023-02-22T05:34:02;126.67;;;16.43;;
67861;SDS011;54665;51.462;6.698;2023-02-22T05:36:27;94.88;;;15.02;;
67861;SDS011;54665;51.462;6.698;2023-02-22T05:38:53;93.00;;;15.53;;
67861;SDS011;54665;51.462;6.698;2023-02-22T05:41:19;134.10;;;16.42;;
67861;SDS011;54665;51.462;6.698;2023-02-22T05:43:44;148.70;;;16.87;;
67861;SDS011;54665;51.462;6.698;2023-02-22T05:46:10;109.00;;;16.23;;
67861;SDS011;54665;51.462;6.698;2023-02-22T05:48:35;123.57;;;16.77;;
67861;SDS011;54665;51.462;6.698;2023-02-22T05:51:01;118.93;;;16.25;;
67861;SDS011;54665;51.462;6.698;2023-02-22T05:53:27;98.63;;;16.27;;
67861;SDS011;54665;51.462;6.698;2023-02-22T05:55:53;113.50;;;15.98;;
67861;SDS011;54665;51.462;6.698;2023-02-22T05:58:19;119.03;;;16.53;;
67861;SDS011;54665;51.462;6.698;2023-02-22T06:00:44;109.90;;;18.48;;
67861;SDS011;54665;51.462;6.698;2023-02-22T06:03:10;107.63;;;16.47;;
67861;SDS011;54665;51.462;6.698;2023-02-22T06:05:38;124.13;;;17.75;;
67861;SDS011;54665;51.462;6.698;2023-02-22T06:08:04;117.17;;;17.47;;
67861;SDS011;54665;51.462;6.698;2023-02-22T06:10:31;105.47;;;17.33;;
67861;SDS011;54665;51.462;6.698;2023-02-22T06:12:57;106.25;;;17.75;;
67861;SDS011;54665;51.462;6.698;2023-02-22T06:15:23;95.28;;;17.13;;
67861;SDS011;54665;51.462;6.698;2023-02-22T06:17:50;84.10;;;17.03;;
67861;SDS011;54665;51.462;6.698;2023-02-22T06:20:17;112.63;;;19.42;;
67861;SDS011;54665;51.462;6.698;2023-02-22T06:22:51;96.15;;;18.08;;
67861;SDS011;54665;51.462;6.698;2023-02-22T06:25:23;128.13;;;19.10;;
67861;SDS011;54665;51.462;6.698;2023-02-22T06:27:51;133.75;;;20.05;;
67861;SDS011;54665;51.462;6.698;2023-02-22T06:30:17;129.87;;;20.20;;
67861;SDS011;54665;51.462;6.698;2023-02-22T06:32:45;131.40;;;23.35;;
67861;SDS011;54665;51.462;6.698;2023-02-22T06:35:11;129.00;;;21.97;;
67861;SDS011;54665;51.462;6.698;2023-02-22T06:37:36;114.77;;;21.77;;
67861;SDS011;54665;51.462;6.698;2023-02-22T06:40:03;124.18;;;21.55;;
67861;SDS011;54665;51.462;6.698;2023-02-22T06:42:29;108.27;;;20.87;;
67861;SDS011;54665;51.462;6.698;2023-02-22T06:44:54;110.70;;;21.67;;
67861;SDS011;54665;51.462;6.698;2023-02-22T06:47:19;115.20;;;22.60;;
67861;SDS011;54665;51.462;6.698;2023-02-22T06:49:50;103.37;;;21.10;;
67861;SDS011;54665;51.462;6.698;2023-02-22T06:52:16;113.15;;;22.05;;
67861;SDS011;54665;51.462;6.698;2023-02-22T06:54:42;109.43;;;21.50;;
67861;SDS011;54665;51.462;6.698;2023-02-22T06:57:07;108.77;;;22.57;;
67861;SDS011;54665;51.462;6.698;2023-02-22T06:59:34;92.18;;;21.10;;
67861;SDS011;54665;51.462;6.698;2023-02-22T07:01:59;97.93;;;20.90;;
67861;SDS011;54665;51.462;6.698;2023-02-22T07:04:25;91.20;;;21.33;;
67861;SDS011;54665;51.462;6.698;2023-02-22T07:06:50;86.87;;;20.83;;
67861;SDS011;54665;51.462;6.698;2023-02-22T07:09:16;93.05;;;22.08;;
67861;SDS011;54665;51.462;6.698;2023-02-22T07:11:42;89.77;;;21.33;;
67861;SDS011;54665;51.462;6.698;2023-02-22T07:14:08;77.57;;;19.75;;
67861;SDS011;54665;51.462;6.698;2023-02-22T07:16:34;84.95;;;20.27;;
67861;SDS011;54665;51.462;6.698;2023-02-22T07:18:59;75.77;;;18.63;;
67861;SDS011;54665;51.462;6.698;2023-02-22T07:21:25;65.90;;;18.93;;
67861;SDS011;54665;51.462;6.698;2023-02-22T07:23:52;68.78;;;19.67;;
67861;SDS011;54665;51.462;6.698;2023-02-22T07:26:18;68.07;;;17.88;;
67861;SDS011;54665;51.462;6.698;2023-02-22T07:28:44;67.53;;;18.67;;
67861;SDS011;54665;51.462;6.698;2023-02-22T07:31:09;74.87;;;20.10;;
67861;SDS011;54665;51.462;6.698;2023-02-22T07:33:34;62.30;;;18.67;;
67861;SDS011;54665;51.462;6.698;2023-02-22T07:36:00;68.07;;;18.87;;
67861;SDS011;54665;51.462;6.698;2023-02-22T07:38:25;69.10;;;19.85;;
67861;SDS011;54665;51.462;6.698;2023-02-22T07:40:51;66.73;;;18.50;;
67861;SDS011;54665;51.462;6.698;2023-02-22T07:43:20;59.00;;;18.57;;
67861;SDS011;54665;51.462;6.698;2023-02-22T07:45:48;56.28;;;18.25;;
67861;SDS011;54665;51.462;6.698;2023-02-22T07:48:15;55.15;;;18.17;;
67861;SDS011;54665;51.462;6.698;2023-02-22T07:50:41;58.00;;;17.73;;
67861;SDS011;54665;51.462;6.698;2023-02-22T07:53:14;52.40;;;17.05;;
67861;SDS011;54665;51.462;6.698;2023-02-22T07:55:44;48.00;;;16.93;;
67861;SDS011;54665;51.462;6.698;2023-02-22T07:58:14;46.78;;;16.50;;
67861;SDS011;54665;51.462;6.698;2023-02-22T08:00:41;48.67;;;16.98;;
67861;SDS011;54665;51.462;6.698;2023-02-22T08:03:09;46.47;;;17.10;;
67861;SDS011;54665;51.462;6.698;2023-02-22T08:05:37;46.75;;;16.13;;
67861;SDS011;54665;51.462;6.698;2023-02-22T08:08:04;47.97;;;16.83;;
67861;SDS011;54665;51.462;6.698;2023-02-22T08:10:31;46.15;;;16.20;;
67861;SDS011;54665;51.462;6.698;2023-02-22T08:12:57;40.40;;;15.85;;
67861;SDS011;54665;51.462;6.698;2023-02-22T08:15:25;42.33;;;15.80;;
67861;SDS011;54665;51.462;6.698;2023-02-22T08:17:52;40.65;;;15.75;;
67861;SDS011;54665;51.462;6.698;2023-02-22T08:20:19;41.47;;;15.77;;
67861;SDS011;54665;51.462;6.698;2023-02-22T08:22:45;36.42;;;14.90;;
67861;SDS011;54665;51.462;6.698;2023-02-22T08:25:12;41.13;;;15.25;;
67861;SDS011;54665;51.462;6.698;2023-02-22T08:27:39;37.58;;;14.93;;
67861;SDS011;54665;51.462;6.698;2023-02-22T08:30:05;37.37;;;14.70;;
67861;SDS011;54665;51.462;6.698;2023-02-22T08:32:32;37.78;;;14.63;;
67861;SDS011;54665;51.462;6.698;2023-02-22T08:34:59;37.83;;;14.68;;
67861;SDS011;54665;51.462;6.698;2023-02-22T08:37:25;36.42;;;14.77;;
67861;SDS011;54665;51.462;6.698;2023-02-22T08:39:51;34.30;;;13.63;;
67861;SDS011;54665;51.462;6.698;2023-02-22T08:42:17;36.45;;;14.45;;
67861;SDS011;54665;51.462;6.698;2023-02-22T08:44:42;29.20;;;13.40;;
67861;SDS011;54665;51.462;6.698;2023-02-22T08:47:08;35.67;;;14.37;;
67861;SDS011;54665;51.462;6.698;2023-02-22T08:49:33;31.77;;;13.30;;
67861;SDS011;54665;51.462;6.698;2023-02-22T08:51:59;30.95;;;13.57;;
67861;SDS011;54665;51.462;6.698;2023-02-22T08:54:24;34.40;;;13.77;;
67861;SDS011;54665;51.462;6.698;2023-02-22T08:56:50;35.37;;;13.90;;
67861;SDS011;54665;51.462;6.698;2023-02-22T08:59:15;32.87;;;13.33;;
67861;SDS011;54665;51.462;6.698;2023-02-22T09:01:41;31.02;;;13.18;;
67861;SDS011;54665;51.462;6.698;2023-02-22T09:04:07;33.57;;;14.37;;
67861;SDS011;54665;51.462;6.698;2023-02-22T09:06:33;29.50;;;13.13;;
67861;SDS011;54665;51.462;6.698;2023-02-22T09:08:58;30.20;;;13.48;;
67861;SDS011;54665;51.462;6.698;2023-02-22T09:11:24;29.57;;;12.87;;
67861;SDS011;54665;51.462;6.698;2023-02-22T09:13:49;30.23;;;13.20;;
67861;SDS011;54665;51.462;6.698;2023-02-22T09:16:14;33.37;;;13.33;;
67861;SDS011;54665;51.462;6.698;2023-02-22T09:18:40;30.85;;;13.45;;
67861;SDS011;54665;51.462;6.698;2023-02-22T09:21:05;28.93;;;12.23;;
67861;SDS011;54665;51.462;6.698;2023-02-22T09:23:31;26.90;;;11.80;;
67861;SDS011;54665;51.462;6.698;2023-02-22T09:25:56;25.20;;;11.43;;
67861;SDS011;54665;51.462;6.698;2023-02-22T09:28:24;24.83;;;11.40;;
67861;SDS011;54665;51.462;6.698;2023-02-22T09:30:51;23.67;;;10.90;;
67861;SDS011;54665;51.462;6.698;2023-02-22T09:33:17;24.13;;;10.83;;
67861;SDS011;54665;51.462;6.698;2023-02-22T09:35:44;24.35;;;10.27;;
67861;SDS011;54665;51.462;6.698;2023-02-22T09:38:12;21.02;;;10.48;;
67861;SDS011;54665;51.462;6.698;2023-02-22T09:40:40;24.52;;;10.70;;
67861;SDS011;54665;51.462;6.698;2023-02-22T09:43:38;21.20;;;10.55;;
67861;SDS011;54665;51.462;6.698;2023-02-22T09:51:32;20.00;;;9.40;;
67861;SDS011;54665;51.462;6.698;2023-02-22T09:54:05;19.92;;;9.68;;
67861;SDS011;54665;51.462;6.698;2023-02-22T09:56:38;18.70;;;8.82;;
67861;SDS011;54665;51.462;6.698;2023-02-22T09:59:05;22.40;;;9.50;;
67861;SDS011;54665;51.462;6.698;2023-02-22T10:01:34;20.15;;;8.98;;
67861;SDS011;54665;51.462;6.698;2023-02-22T10:04:18;19.83;;;8.80;;
67861;SDS011;54665;51.462;6.698;2023-02-22T10:10:01;17.05;;;8.23;;
67861;SDS011;54665;51.462;6.698;2023-02-22T10:15:06;19.58;;;8.48;;
67861;SDS011;54665;51.462;6.698;2023-02-22T10:17:49;18.40;;;8.32;;
67861;SDS011;54665;51.462;6.698;2023-02-22T10:20:38;17.70;;;7.78;;
67861;SDS011;54665;51.462;6.698;2023-02-22T10:23:19;17.05;;;8.55;;
67861;SDS011;54665;51.462;6.698;2023-02-22T10:31:29;18.15;;;8.60;;
67861;SDS011;54665;51.462;6.698;2023-02-22T10:34:00;20.52;;;8.50;;
67861;SDS011;54665;51.462;6.698;2023-02-22T10:36:29;18.75;;;8.43;;
67861;SDS011;54665;51.462;6.698;2023-02-22T10:38:57;17.07;;;8.00;;
67861;SDS011;54665;51.462;6.698;2023-02-22T10:41:31;14.68;;;8.10;;
67861;SDS011;54665;51.462;6.698;2023-02-22T10:43:57;15.25;;;8.00;;
67861;SDS011;54665;51.462;6.698;2023-02-22T10:46:24;18.35;;;8.45;;
67861;SDS011;54665;51.462;6.698;2023-02-22T10:48:53;16.80;;;8.10;;
67861;SDS011;54665;51.462;6.698;2023-02-22T10:51:24;17.60;;;8.30;;
67861;SDS011;54665;51.462;6.698;2023-02-22T10:56:51;18.60;;;8.77;;
67861;SDS011;54665;51.462;6.698;2023-02-22T10:59:38;16.30;;;8.00;;
67861;SDS011;54665;51.462;6.698;2023-02-22T11:04:56;18.25;;;8.40;;
67861;SDS011;54665;51.462;6.698;2023-02-22T11:07:25;15.70;;;8.37;;
67861;SDS011;54665;51.462;6.698;2023-02-22T11:09:56;16.40;;;7.68;;
67861;SDS011;54665;51.462;6.698;2023-02-22T11:14:57;16.13;;;7.78;;
67861;SDS011;54665;51.462;6.698;2023-02-22T11:17:47;15.23;;;7.30;;
67861;SDS011;54665;51.462;6.698;2023-02-22T11:22:53;14.85;;;7.28;;
67861;SDS011;54665;51.462;6.698;2023-02-22T11:25:24;14.40;;;7.13;;
67861;SDS011;54665;51.462;6.698;2023-02-22T11:30:54;17.42;;;7.38;;
67861;SDS011;54665;51.462;6.698;2023-02-22T11:33:22;14.33;;;7.00;;
67861;SDS011;54665;51.462;6.698;2023-02-22T11:36:00;15.18;;;7.25;;
67861;SDS011;54665;51.462;6.698;2023-02-22T11:38:30;14.30;;;6.80;;
67861;SDS011;54665;51.462;6.698;2023-02-22T11:41:16;14.13;;;6.93;;
67861;SDS011;54665;51.462;6.698;2023-02-22T11:43:50;14.73;;;7.43;;
67861;SDS011;54665;51.462;6.698;2023-02-22T11:46:20;16.97;;;7.30;;
67861;SDS011;54665;51.462;6.698;2023-02-22T11:51:37;17.83;;;8.13;;
67861;SDS011;54665;51.462;6.698;2023-02-22T11:54:16;20.25;;;8.55;;
67861;SDS011;54665;51.462;6.698;2023-02-22T12:03:07;16.27;;;7.22;;
67861;SDS011;54665;51.462;6.698;2023-02-22T12:19:30;23.00;;;11.00;;
67861;SDS011;54665;51.462;6.698;2023-02-22T12:22:03;22.10;;;10.07;;
67861;SDS011;54665;51.462;6.698;2023-02-22T12:24:35;22.52;;;10.50;;
67861;SDS011;54665;51.462;6.698;2023-02-22T12:27:08;21.00;;;9.67;;
67861;SDS011;54665;51.462;6.698;2023-02-22T12:29:42;19.58;;;8.95;;
67861;SDS011;54665;51.462;6.698;2023-02-22T12:32:18;22.77;;;8.90;;
67861;SDS011;54665;51.462;6.698;2023-02-22T12:35:23;18.65;;;8.40;;
67861;SDS011;54665;51.462;6.698;2023-02-22T12:40:45;18.07;;;7.40;;
67861;SDS011;54665;51.462;6.698;2023-02-22T12:43:31;21.90;;;7.93;;
67861;SDS011;54665;51.462;6.698;2023-02-22T12:46:09;15.80;;;7.32;;
67861;SDS011;54665;51.462;6.698;2023-02-22T12:51:27;14.27;;;6.47;;
67861;SDS011;54665;51.462;6.698;2023-02-22T12:57:00;17.05;;;7.40;;
67861;SDS011;54665;51.462;6.698;2023-02-22T12:59:40;15.55;;;7.38;;
67861;SDS011;54665;51.462;6.698;2023-02-22T13:02:20;16.60;;;7.72;;
67861;SDS011;54665;51.462;6.698;2023-02-22T13:04:48;14.60;;;7.00;;
67861;SDS011;54665;51.462;6.698;2023-02-22T13:09:55;13.75;;;7.28;;
67861;SDS011;54665;51.462;6.698;2023-02-22T13:15:21;14.75;;;7.93;;
67861;SDS011;54665;51.462;6.698;2023-02-22T13:18:00;18.73;;;8.17;;
67861;SDS011;54665;51.462;6.698;2023-02-22T13:20:32;13.88;;;7.88;;
67861;SDS011;54665;51.462;6.698;2023-02-22T13:25:58;13.98;;;8.07;;
67861;SDS011;54665;51.462;6.698;2023-02-22T13:31:35;15.63;;;8.23;;
67861;SDS011;54665;51.462;6.698;2023-02-22T13:43:21;19.98;;;9.50;;
67861;SDS011;54665;51.462;6.698;2023-02-22T13:56:58;17.35;;;9.02;;
67861;SDS011;54665;51.462;6.698;2023-02-22T13:59:28;21.30;;;8.53;;
67861;SDS011;54665;51.462;6.698;2023-02-22T14:02:02;19.15;;;8.90;;
67861;SDS011;54665;51.462;6.698;2023-02-22T14:04:32;19.85;;;9.00;;
67861;SDS011;54665;51.462;6.698;2023-02-22T14:09:50;15.65;;;7.75;;
67861;SDS011;54665;51.462;6.698;2023-02-22T14:13:01;17.67;;;7.17;;
67861;SDS011;54665;51.462;6.698;2023-02-22T14:17:39;15.35;;;7.57;;
67861;SDS011;54665;51.462;6.698;2023-02-22T14:22:47;13.82;;;7.05;;
67861;SDS011;54665;51.462;6.698;2023-02-22T14:28:08;15.93;;;7.03;;
67861;SDS011;54665;51.462;6.698;2023-02-22T14:31:03;14.40;;;7.15;;
67861;SDS011;54665;51.462;6.698;2023-02-22T14:33:49;14.65;;;7.40;;
67861;SDS011;54665;51.462;6.698;2023-02-22T14:36:31;15.63;;;7.70;;
67861;SDS011;54665;51.462;6.698;2023-02-22T14:39:12;15.30;;;7.37;;
67861;SDS011;54665;51.462;6.698;2023-02-22T14:41:40;14.85;;;7.03;;
67861;SDS011;54665;51.462;6.698;2023-02-22T14:44:10;14.18;;;7.38;;
67861;SDS011;54665;51.462;6.698;2023-02-22T14:46:38;16.13;;;7.55;;
67861;SDS011;54665;51.462;6.698;2023-02-22T14:49:08;16.83;;;8.13;;
67861;SDS011;54665;51.462;6.698;2023-02-22T14:51:43;14.90;;;7.83;;
67861;SDS011;54665;51.462;6.698;2023-02-22T14:54:23;17.38;;;7.78;;
67861;SDS011;54665;51.462;6.698;2023-02-22T14:56:59;16.17;;;8.13;;
67861;SDS011;54665;51.462;6.698;2023-02-22T15:02:55;16.65;;;7.82;;
67861;SDS011;54665;51.462;6.698;2023-02-22T15:05:25;17.93;;;7.83;;
67861;SDS011;54665;51.462;6.698;2023-02-22T15:10:24;18.17;;;8.13;;
67861;SDS011;54665;51.462;6.698;2023-02-22T15:12:59;15.38;;;7.68;;
67861;SDS011;54665;51.462;6.698;2023-02-22T15:15:34;14.05;;;7.35;;
67861;SDS011;54665;51.462;6.698;2023-02-22T15:18:00;15.33;;;7.37;;
67861;SDS011;54665;51.462;6.698;2023-02-22T15:20:29;16.02;;;7.43;;
67861;SDS011;54665;51.462;6.698;2023-02-22T15:22:58;16.70;;;7.70;;
67861;SDS011;54665;51.462;6.698;2023-02-22T15:25:25;17.13;;;7.45;;
67861;SDS011;54665;51.462;6.698;2023-02-22T15:27:52;14.88;;;7.90;;
67861;SDS011;54665;51.462;6.698;2023-02-22T15:30:26;14.90;;;7.87;;
67861;SDS011;54665;51.462;6.698;2023-02-22T15:32:53;14.60;;;7.50;;
67861;SDS011;54665;51.462;6.698;2023-02-22T15:37:57;16.70;;;8.27;;
67861;SDS011;54665;51.462;6.698;2023-02-22T15:40:24;19.23;;;8.30;;
67861;SDS011;54665;51.462;6.698;2023-02-22T15:42:57;16.30;;;7.88;;
67861;SDS011;54665;51.462;6.698;2023-02-22T15:45:25;15.73;;;8.23;;
67861;SDS011;54665;51.462;6.698;2023-02-22T15:47:52;16.00;;;8.20;;
67861;SDS011;54665;51.462;6.698;2023-02-22T15:50:23;15.65;;;8.38;;
67861;SDS011;54665;51.462;6.698;2023-02-22T15:55:22;17.38;;;8.18;;
67861;SDS011;54665;51.462;6.698;2023-02-22T15:57:50;15.77;;;8.63;;
67861;SDS011;54665;51.462;6.698;2023-02-22T16:00:20;17.90;;;8.93;;
67861;SDS011;54665;51.462;6.698;2023-02-22T16:02:47;17.35;;;8.43;;
67861;SDS011;54665;51.462;6.698;2023-02-22T16:05:15;17.75;;;8.77;;
67861;SDS011;54665;51.462;6.698;2023-02-22T16:07:49;17.60;;;9.57;;
67861;SDS011;54665;51.462;6.698;2023-02-22T16:10:33;18.17;;;9.35;;
67861;SDS011;54665;51.462;6.698;2023-02-22T16:13:06;17.20;;;9.15;;
67861;SDS011;54665;51.462;6.698;2023-02-22T16:15:33;17.98;;;9.50;;
67861;SDS011;54665;51.462;6.698;2023-02-22T16:20:57;20.20;;;9.80;;
67861;SDS011;54665;51.462;6.698;2023-02-22T16:28:53;18.97;;;9.80;;
67861;SDS011;54665;51.462;6.698;2023-02-22T16:31:19;18.25;;;9.75;;
67861;SDS011;54665;51.462;6.698;2023-02-22T16:33:47;18.23;;;10.30;;
67861;SDS011;54665;51.462;6.698;2023-02-22T16:36:13;20.70;;;10.43;;
67861;SDS011;54665;51.462;6.698;2023-02-22T16:38:38;21.38;;;9.95;;
67861;SDS011;54665;51.462;6.698;2023-02-22T16:41:07;20.80;;;9.77;;
67861;SDS011;54665;51.462;6.698;2023-02-22T16:43:32;21.23;;;10.57;;
67861;SDS011;54665;51.462;6.698;2023-02-22T16:45:59;23.23;;;11.18;;
67861;SDS011;54665;51.462;6.698;2023-02-22T16:48:26;21.40;;;10.50;;
67861;SDS011;54665;51.462;6.698;2023-02-22T16:51:01;19.55;;;10.10;;
67861;SDS011;54665;51.462;6.698;2023-02-22T16:53:52;20.67;;;10.95;;
67861;SDS011;54665;51.462;6.698;2023-02-22T16:56:19;18.10;;;10.20;;
67861;SDS011;54665;51.462;6.698;2023-02-22T16:58:51;21.40;;;10.55;;
67861;SDS011;54665;51.462;6.698;2023-02-22T17:01:17;21.57;;;10.17;;
67861;SDS011;54665;51.462;6.698;2023-02-22T17:03:44;21.70;;;11.07;;
67861;SDS011;54665;51.462;6.698;2023-02-22T17:06:10;21.05;;;11.00;;
67861;SDS011;54665;51.462;6.698;2023-02-22T17:08:39;18.98;;;10.25;;